Time;durP1;ratioP1;P1;durP2;ratioP2;P2;SDS_P1;SDS_P2;PMS_P1;PMS_P2;Temp;Humidity;BMP_temperature;BMP_pressure;BME280_temperature;BME280_humidity;BME280_pressure;Samples;Min_cycle;Max_cycle;Signal;HPM_P1;HPM_P2
2023/12/03 00:00:14;;;;;;;9.38;6.25;;;;;;;4.37;50.05;101210.59;666061;29;1617;-90
2023/12/03 00:00:34;;;;;;;9.90;5.93;;;;;;;4.41;50.04;101226.31;665002;29;1350;-90
2023/12/03 00:00:55;;;;;;;11.75;6.60;;;;;;;4.34;50.20;101214.69;666870;29;1651;-90
2023/12/03 00:01:16;;;;;;;11.68;6.25;;;;;;;4.43;50.04;101219.53;674840;29;1095;-89
2023/12/03 00:01:37;;;;;;;10.90;6.10;;;;;;;4.49;49.90;101219.91;672870;29;1291;-89
2023/12/03 00:01:58;;;;;;;11.77;6.10;;;;;;;4.46;50.07;101219.72;674437;29;1432;-90
2023/12/03 00:02:20;;;;;;;10.25;6.20;;;;;;;4.39;50.16;101215.88;667032;29;1255;-90
2023/12/03 00:02:42;;;;;;;11.50;6.35;;;;;;;4.43;49.94;101230.78;670142;29;1487;-90
2023/12/03 00:03:03;;;;;;;10.07;5.72;;;;;;;4.40;49.90;101215.06;667231;29;1219;-90
2023/12/03 00:03:23;;;;;;;13.60;6.15;;;;;;;4.42;49.94;101222.94;667086;29;1519;-89
2023/12/03 00:03:44;;;;;;;12.82;6.10;;;;;;;4.39;49.84;101221.06;669730;29;1616;-90
2023/12/03 00:04:05;;;;;;;12.10;6.23;;;;;;;4.32;50.27;101211.13;672012;29;1442;-90
2023/12/03 00:04:25;;;;;;;7.05;5.80;;;;;;;4.32;50.01;101214.63;669520;29;1268;-89
2023/12/03 00:04:48;;;;;;;6.57;5.95;;;;;;;4.44;49.90;101229.06;666987;29;1606;-90
2023/12/03 00:05:09;;;;;;;8.50;5.95;;;;;;;4.31;50.14;101220.59;671764;29;1245;-90
2023/12/03 00:05:30;;;;;;;9.75;6.13;;;;;;;4.38;50.38;101220.13;669545;29;1312;-91
2023/12/03 00:05:51;;;;;;;10.30;6.28;;;;;;;4.38;50.13;101217.56;668706;29;1502;-90
2023/12/03 00:06:11;;;;;;;10.00;6.40;;;;;;;4.41;49.87;101231.50;674991;29;1107;-89
2023/12/03 00:06:32;;;;;;;10.43;6.13;;;;;;;4.37;50.19;101223.53;672335;29;1162;-89
2023/12/03 00:06:53;;;;;;;10.40;5.57;;;;;;;4.38;50.29;101214.97;671651;29;1229;-89
2023/12/03 00:07:14;;;;;;;13.60;6.45;;;;;;;4.39;49.72;101218.47;671985;29;1312;-90
2023/12/03 00:07:35;;;;;;;11.93;6.57;;;;;;;4.46;49.96;101235.22;667170;29;1371;-89
2023/12/03 00:07:56;;;;;;;8.63;6.75;;;;;;;4.47;50.03;101234.44;670362;29;1522;-90
2023/12/03 00:08:17;;;;;;;7.32;5.57;;;;;;;4.41;49.91;101216.84;677617;29;1236;-89
2023/12/03 00:08:38;;;;;;;12.02;6.00;;;;;;;4.37;49.63;101225.25;670041;29;1234;-89
2023/12/03 00:08:59;;;;;;;13.30;5.95;;;;;;;4.36;50.04;101226.91;671781;29;1327;-90
2023/12/03 00:09:20;;;;;;;11.95;5.75;;;;;;;4.22;50.37;101232.94;670446;29;1154;-89
2023/12/03 00:09:41;;;;;;;8.27;5.40;;;;;;;4.26;50.26;101229.75;671416;29;1675;-90
2023/12/03 00:10:01;;;;;;;8.77;5.63;;;;;;;4.35;50.29;101226.84;670774;29;1132;-89
2023/12/03 00:10:23;;;;;;;8.63;5.75;;;;;;;4.34;50.14;101215.59;671923;29;1269;-89
2023/12/03 00:10:44;;;;;;;8.32;5.85;;;;;;;4.36;50.30;101229.50;670091;29;1520;-90
2023/12/03 00:11:04;;;;;;;9.63;5.70;;;;;;;4.21;50.32;101229.44;670048;29;1159;-89
2023/12/03 00:11:25;;;;;;;10.52;6.15;;;;;;;4.33;50.37;101221.56;671391;29;1148;-91
2023/12/03 00:11:46;;;;;;;10.80;5.80;;;;;;;4.37;50.16;101215.78;672669;29;1504;-90
2023/12/03 00:12:08;;;;;;;7.78;5.70;;;;;;;4.35;50.19;101222.56;673242;29;1148;-89
2023/12/03 00:12:29;;;;;;;7.00;5.68;;;;;;;4.39;50.01;101231.38;672328;29;1321;-89
2023/12/03 00:12:50;;;;;;;9.73;6.40;;;;;;;4.35;50.21;101219.09;670564;29;1954;-90
2023/12/03 00:13:10;;;;;;;10.73;6.30;;;;;;;4.36;50.31;101219.16;670121;29;1272;-90
2023/12/03 00:13:31;;;;;;;12.40;6.32;;;;;;;4.35;50.13;101227.72;669998;29;1634;-90
2023/12/03 00:13:54;;;;;;;11.03;6.13;;;;;;;4.29;50.36;101227.34;672113;29;1454;-89
2023/12/03 00:14:15;;;;;;;11.15;7.07;;;;;;;4.37;50.23;101217.50;669236;29;2069;-88
2023/12/03 00:14:35;;;;;;;13.60;7.15;;;;;;;4.32;50.41;101219.78;672197;29;1272;-89
2023/12/03 00:14:57;;;;;;;16.63;8.17;;;;;;;4.41;50.37;101226.31;666753;29;1718;-89
2023/12/03 00:15:18;;;;;;;14.88;7.55;;;;;;;4.44;49.80;101231.66;670683;29;1247;-88
2023/12/03 00:15:39;;;;;;;11.63;6.97;;;;;;;4.36;50.36;101213.13;670191;29;1694;-90
2023/12/03 00:16:00;;;;;;;9.13;6.38;;;;;;;4.45;49.88;101223.09;668098;29;1277;-90
2023/12/03 00:16:20;;;;;;;9.40;6.20;;;;;;;4.46;49.88;101222.31;670397;29;1438;-90
2023/12/03 00:16:41;;;;;;;9.57;6.40;;;;;;;4.49;49.90;101217.34;670246;29;1164;-90
2023/12/03 00:17:01;;;;;;;10.67;5.73;;;;;;;4.50;49.93;101221.69;667488;29;1708;-89
2023/12/03 00:17:22;;;;;;;11.57;5.82;;;;;;;4.45;49.65;101217.94;668344;29;1278;-90
2023/12/03 00:17:43;;;;;;;11.60;5.57;;;;;;;4.51;50.13;101233.81;671086;29;1519;-90
2023/12/03 00:18:04;;;;;;;9.25;5.68;;;;;;;4.52;50.03;101231.34;668289;29;1136;-91
2023/12/03 00:18:25;;;;;;;8.90;5.77;;;;;;;4.54;49.73;101227.94;668711;29;1253;-90
2023/12/03 00:18:46;;;;;;;8.43;5.72;;;;;;;4.45;49.66;101210.19;669253;29;1519;-90
2023/12/03 00:19:06;;;;;;;10.13;5.90;;;;;;;4.60;50.06;101238.66;673018;29;1198;-90
2023/12/03 00:19:27;;;;;;;11.07;6.00;;;;;;;4.52;49.75;101230.44;670222;29;1347;-90
2023/12/03 00:19:48;;;;;;;11.30;6.00;;;;;;;4.50;49.82;101216.53;666486;29;1582;-89
2023/12/03 00:20:09;;;;;;;7.47;5.35;;;;;;;4.53;49.89;101232.22;667846;29;1259;-89
2023/12/03 00:20:29;;;;;;;7.63;4.72;;;;;;;4.46;49.75;101217.13;665272;29;879;-90
2023/12/03 00:20:50;;;;;;;7.97;4.95;;;;;;;4.45;49.82;101217.94;668866;29;1616;-90
2023/12/03 00:21:10;;;;;;;11.30;6.23;;;;;;;4.57;50.10;101233.28;672743;29;1264;-89
2023/12/03 00:21:31;;;;;;;11.15;6.90;;;;;;;4.50;49.83;101227.75;677688;29;1234;-90
2023/12/03 00:21:52;;;;;;;11.25;6.82;;;;;;;4.49;49.88;101217.34;671205;29;1504;-90
2023/12/03 00:22:13;;;;;;;12.90;6.53;;;;;;;4.50;49.87;101224.28;672162;29;1191;-90
2023/12/03 00:22:34;;;;;;;12.82;5.70;;;;;;;4.52;49.82;101225.25;672165;29;968;-90
2023/12/03 00:22:55;;;;;;;13.70;6.60;;;;;;;4.54;49.94;101227.94;667455;29;1504;-90
2023/12/03 00:23:15;;;;;;;12.13;6.90;;;;;;;4.42;50.00;101217.75;666884;29;1339;-89
2023/12/03 00:23:37;;;;;;;12.82;6.90;;;;;;;4.45;50.17;101226.59;669679;29;1214;-89
2023/12/03 00:23:58;;;;;;;12.55;6.80;;;;;;;4.46;50.09;101219.72;669691;29;1451;-91
2023/12/03 00:24:19;;;;;;;9.35;5.53;;;;;;;4.46;49.80;101205.13;669484;29;1276;-89
2023/12/03 00:24:39;;;;;;;8.65;5.50;;;;;;;4.57;50.12;101222.94;672047;29;1583;-90
2023/12/03 00:25:00;;;;;;;7.22;4.97;;;;;;;4.58;49.60;101214.38;670151;29;1723;-90
2023/12/03 00:25:21;;;;;;;7.03;5.70;;;;;;;4.58;49.67;101230.81;665336;29;1590;-90
2023/12/03 00:25:42;;;;;;;6.13;5.60;;;;;;;4.51;50.01;101218.31;667023;29;1598;-90
2023/12/03 00:26:03;;;;;;;8.70;5.95;;;;;;;4.44;50.05;101217.06;669685;29;1196;-90
2023/12/03 00:26:23;;;;;;;12.25;6.43;;;;;;;4.45;49.95;101228.28;669681;29;1209;-89
2023/12/03 00:26:44;;;;;;;10.82;6.10;;;;;;;4.45;49.93;101218.84;667078;29;1463;-89
2023/12/03 00:27:05;;;;;;;10.40;6.07;;;;;;;4.45;50.08;101212.75;669279;29;1116;-90
2023/12/03 00:27:26;;;;;;;8.86;5.50;;;;;;;4.59;49.98;101234.28;669466;29;1355;-90
2023/12/03 00:27:48;;;;;;;15.00;6.20;;;;;;;4.56;49.92;101222.06;669242;29;1471;-89
2023/12/03 00:28:09;;;;;;;14.13;6.30;;;;;;;4.54;49.60;101218.47;668538;29;1621;-89
2023/12/03 00:28:29;;;;;;;15.37;6.57;;;;;;;4.58;49.83;101225.63;672026;29;1128;-89
2023/12/03 00:28:50;;;;;;;10.63;5.95;;;;;;;4.55;49.81;101215.13;670844;29;1509;-90
2023/12/03 00:29:11;;;;;;;10.20;5.75;;;;;;;4.52;49.88;101213.25;672044;29;1194;-89
2023/12/03 00:29:32;;;;;;;8.43;5.70;;;;;;;4.49;49.63;101220.78;674806;29;1092;-89
2023/12/03 00:29:53;;;;;;;9.90;6.18;;;;;;;4.70;49.62;101229.75;672068;29;1660;-90
2023/12/03 00:30:14;;;;;;;11.40;6.78;;;;;;;4.59;49.80;101222.25;672343;29;1230;-89
2023/12/03 00:30:35;;;;;;;11.27;6.22;;;;;;;4.63;49.54;101228.50;669494;29;1278;-89
2023/12/03 00:30:55;;;;;;;11.23;5.97;;;;;;;4.62;49.86;101227.63;667258;29;1630;-90
2023/12/03 00:31:16;;;;;;;10.43;5.33;;;;;;;4.60;49.83;101230.91;673702;29;1173;-90
2023/12/03 00:31:37;;;;;;;9.32;5.50;;;;;;;4.63;49.84;101250.06;672005;29;1179;-89
2023/12/03 00:31:57;;;;;;;9.98;6.07;;;;;;;4.52;49.68;101220.09;673608;29;1492;-89
2023/12/03 00:32:18;;;;;;;8.43;5.97;;;;;;;4.54;50.13;101215.91;672089;29;1316;-89
2023/12/03 00:32:39;;;;;;;9.18;6.10;;;;;;;4.47;49.97;101213.78;669373;29;1915;-89
2023/12/03 00:33:00;;;;;;;9.18;6.43;;;;;;;4.50;50.03;101221.69;674217;29;1243;-89
2023/12/03 00:33:21;;;;;;;10.98;6.43;;;;;;;4.64;50.03;101238.94;672751;29;1480;-89
2023/12/03 00:33:41;;;;;;;15.27;7.30;;;;;;;4.56;50.00;101226.34;672057;29;1594;-90
2023/12/03 00:34:03;;;;;;;12.80;6.45;;;;;;;4.67;49.68;101239.91;672097;29;1172;-90
2023/12/03 00:34:23;;;;;;;11.90;6.43;;;;;;;4.59;49.86;101227.41;671966;29;1403;-89
2023/12/03 00:34:44;;;;;;;10.20;6.10;;;;;;;4.58;49.60;101225.63;673124;29;1264;-89
2023/12/03 00:35:05;;;;;;;16.10;6.50;;;;;;;4.52;50.13;101215.81;672678;29;1504;-88
2023/12/03 00:35:26;;;;;;;15.88;6.55;;;;;;;4.54;50.23;101223.66;669865;29;1570;-89
2023/12/03 00:35:48;;;;;;;16.77;6.63;;;;;;;4.51;50.14;101233.81;670449;29;1393;-90
2023/12/03 00:36:09;;;;;;;18.33;6.30;;;;;;;4.47;49.86;101212.06;671815;29;1246;-89
2023/12/03 00:36:30;;;;;;;17.20;6.20;;;;;;;4.56;49.95;101228.91;669245;29;1240;-89
2023/12/03 00:36:51;;;;;;;13.48;5.75;;;;;;;4.40;50.34;101220.25;672070;29;1592;-90
2023/12/03 00:37:12;;;;;;;7.73;5.40;;;;;;;4.54;49.80;101223.66;669101;29;1159;-90
2023/12/03 00:37:32;;;;;;;8.32;5.22;;;;;;;4.48;50.19;101219.00;667077;29;1335;-90
2023/12/03 00:37:53;;;;;;;10.00;6.32;;;;;;;4.57;49.97;101223.84;669104;29;1452;-90
2023/12/03 00:38:14;;;;;;;9.85;6.78;;;;;;;4.56;49.94;101223.75;669274;29;1069;-89
2023/12/03 00:38:35;;;;;;;12.43;7.85;;;;;;;4.62;49.98;101230.19;674039;29;1462;-89
2023/12/03 00:38:59;;;;;;;14.05;8.10;;;;;;;4.59;49.53;101230.00;669900;29;1592;-90
2023/12/03 00:39:19;;;;;;;13.95;7.43;;;;;;;4.59;49.68;101219.66;669489;29;1375;-90
2023/12/03 00:39:40;;;;;;;11.75;6.60;;;;;;;4.64;49.91;101219.94;674525;29;1591;-90
2023/12/03 00:40:01;;;;;;;9.20;5.95;;;;;;;4.67;49.63;101226.97;674355;29;1486;-90
2023/12/03 00:40:22;;;;;;;9.33;6.40;;;;;;;4.59;49.67;101219.66;669536;29;1160;-89
2023/12/03 00:40:42;;;;;;;10.45;6.38;;;;;;;4.64;49.96;101240.63;672279;29;1659;-89
2023/12/03 00:41:03;;;;;;;11.68;6.63;;;;;;;4.59;50.06;101227.41;672157;29;1242;-90
2023/12/03 00:41:24;;;;;;;10.90;6.32;;;;;;;4.63;49.72;101213.88;667143;29;1390;-90
2023/12/03 00:41:45;;;;;;;10.05;6.22;;;;;;;4.75;49.55;101243.84;669960;29;1517;-89
2023/12/03 00:42:06;;;;;;;8.70;5.70;;;;;;;4.63;49.77;101234.56;671763;29;1105;-90
2023/12/03 00:42:27;;;;;;;8.77;5.68;;;;;;;4.56;49.90;101216.00;669425;29;1232;-89
2023/12/03 00:42:48;;;;;;;8.23;5.90;;;;;;;4.55;49.71;101212.53;671294;29;1986;-89
2023/12/03 00:43:09;;;;;;;9.25;6.18;;;;;;;4.69;49.38;101227.97;672181;29;1148;-90
2023/12/03 00:43:30;;;;;;;8.97;6.10;;;;;;;4.57;49.74;101218.69;674802;29;1167;-89
2023/12/03 00:43:50;;;;;;;11.70;6.50;;;;;;;4.58;49.72;101224.72;674632;29;1458;-88
2023/12/03 00:44:11;;;;;;;10.63;6.63;;;;;;;4.61;49.79;101230.97;674742;29;1098;-89
2023/12/03 00:44:32;;;;;;;14.48;7.03;;;;;;;4.54;49.72;101209.84;669543;29;1493;-90
2023/12/03 00:44:53;;;;;;;13.32;7.20;;;;;;;4.62;49.96;101225.03;667959;29;1620;-90
2023/12/03 00:45:14;;;;;;;13.75;6.82;;;;;;;4.52;49.80;101210.66;672470;29;1311;-89
2023/12/03 00:45:34;;;;;;;11.77;7.13;;;;;;;4.62;49.92;101221.53;669521;29;1293;-90
2023/12/03 00:45:57;;;;;;;11.65;6.72;;;;;;;4.59;50.04;101231.72;667970;29;1778;-88
2023/12/03 00:46:19;;;;;;;10.85;6.65;;;;;;;4.58;49.66;101225.63;669609;29;1394;-89
2023/12/03 00:46:39;;;;;;;8.05;5.43;;;;;;;4.48;49.77;101208.66;667301;29;1345;-88
2023/12/03 00:47:00;;;;;;;7.83;5.33;;;;;;;4.54;50.17;101223.66;666901;29;1120;-89
2023/12/03 00:47:21;;;;;;;11.17;6.20;;;;;;;4.45;49.75;101211.09;667157;29;1365;-90
2023/12/03 00:47:42;;;;;;;11.98;6.63;;;;;;;4.38;50.21;101224.44;671440;29;1541;-89
2023/12/03 00:48:03;;;;;;;13.75;7.00;;;;;;;4.45;50.11;101229.19;669675;29;1216;-90
2023/12/03 00:48:23;;;;;;;14.07;7.20;;;;;;;4.38;50.38;101220.13;674569;29;1200;-89
2023/12/03 00:48:44;;;;;;;15.35;7.53;;;;;;;4.41;50.13;101219.44;669842;29;1671;-90
2023/12/03 00:49:05;;;;;;;13.50;6.70;;;;;;;4.37;50.23;101220.94;669359;29;1250;-90
2023/12/03 00:49:26;;;;;;;10.45;5.70;;;;;;;4.35;50.23;101222.56;669262;29;1753;-89
2023/12/03 00:49:46;;;;;;;13.83;6.00;;;;;;;4.44;50.34;101231.66;670237;29;1621;-89
2023/12/03 00:50:07;;;;;;;14.52;5.93;;;;;;;4.43;49.91;101222.13;672112;29;1208;-89
2023/12/03 00:50:28;;;;;;;12.57;5.88;;;;;;;4.47;49.97;101234.44;671580;29;1155;-89
2023/12/03 00:50:49;;;;;;;9.52;5.88;;;;;;;4.43;50.23;101224.72;673450;29;1517;-89
2023/12/03 00:51:11;;;;;;;8.48;5.70;;;;;;;4.44;49.86;101223.91;669555;29;1224;-90
2023/12/03 00:51:31;;;;;;;8.48;5.47;;;;;;;4.47;50.29;101218.94;671848;29;1163;-89
2023/12/03 00:51:52;;;;;;;8.00;5.30;;;;;;;4.41;49.95;101210.81;670824;29;2016;-89
2023/12/03 00:52:12;;;;;;;10.93;6.63;;;;;;;4.50;49.96;101237.22;667057;29;1196;-90
2023/12/03 00:52:33;;;;;;;13.98;7.40;;;;;;;4.45;50.24;101225.69;670360;29;1355;-90
2023/12/03 00:52:54;;;;;;;14.25;7.25;;;;;;;4.45;49.70;101221.44;671681;29;1923;-89
2023/12/03 00:53:15;;;;;;;14.70;5.93;;;;;;;4.51;49.82;101221.81;672182;29;1249;-90
2023/12/03 00:53:35;;;;;;;12.03;5.90;;;;;;;4.49;49.72;101225.09;669519;29;1322;-90
2023/12/03 00:53:56;;;;;;;12.88;5.95;;;;;;;4.43;50.01;101215.28;672040;29;1870;-89
2023/12/03 00:54:17;;;;;;;15.90;7.38;;;;;;;4.44;50.14;101226.50;672096;29;1180;-90
2023/12/03 00:54:38;;;;;;;17.27;7.50;;;;;;;4.42;49.87;101221.22;672104;29;1293;-88
2023/12/03 00:54:58;;;;;;;16.25;7.65;;;;;;;4.44;49.93;101226.50;674425;29;1222;-89
2023/12/03 00:55:19;;;;;;;10.98;6.03;;;;;;;4.36;50.46;101223.47;671824;29;1290;-89
2023/12/03 00:55:43;;;;;;;9.75;6.07;;;;;;;4.37;50.42;101214.91;666784;29;1389;-88
2023/12/03 00:56:04;;;;;;;9.63;6.22;;;;;;;4.37;50.07;101218.34;669543;29;1198;-89
2023/12/03 00:56:24;;;;;;;10.05;6.63;;;;;;;4.33;50.29;101213.81;669171;29;1323;-88
2023/12/03 00:56:45;;;;;;;9.73;6.40;;;;;;;4.35;50.10;101212.22;672169;29;1155;-90
2023/12/03 00:57:06;;;;;;;10.02;6.82;;;;;;;4.42;49.97;101216.06;666730;29;1064;-89
2023/12/03 00:57:27;;;;;;;12.20;7.77;;;;;;;4.48;49.95;101218.13;669353;29;1238;-90
2023/12/03 00:57:50;;;;;;;12.57;7.75;;;;;;;4.43;50.06;101216.97;668144;29;1301;-90
2023/12/03 00:58:11;;;;;;;12.05;6.75;;;;;;;4.54;50.02;101223.66;669354;29;1241;-90
2023/12/03 00:58:32;;;;;;;12.32;6.70;;;;;;;4.49;49.93;101214.75;672788;29;1589;-89
2023/12/03 00:58:52;;;;;;;9.70;6.63;;;;;;;4.48;49.98;101213.84;672897;29;1481;-90
2023/12/03 00:59:13;;;;;;;10.77;6.90;;;;;;;4.53;50.04;101211.53;672097;29;1269;-90
2023/12/03 00:59:34;;;;;;;10.57;6.50;;;;;;;4.51;49.40;101205.38;671957;29;1368;-89
2023/12/03 00:59:54;;;;;;;13.45;7.25;;;;;;;4.49;49.64;101212.16;667073;29;1177;-89
2023/12/03 01:00:17;;;;;;;13.80;7.40;;;;;;;4.56;49.57;101218.59;668884;29;1247;-90
2023/12/03 01:00:38;;;;;;;12.25;7.50;;;;;;;4.50;49.77;101214.81;668006;29;1311;-89
2023/12/03 01:00:58;;;;;;;10.60;6.72;;;;;;;4.50;49.50;101211.38;669550;29;1334;-89
2023/12/03 01:01:20;;;;;;;10.25;6.60;;;;;;;4.44;49.73;101205.81;670482;29;1391;-89
2023/12/03 01:01:41;;;;;;;13.52;7.10;;;;;;;4.50;49.68;101213.94;669552;29;1241;-89
2023/12/03 01:02:02;;;;;;;14.80;7.70;;;;;;;4.43;49.85;101211.78;669014;29;1144;-90
2023/12/03 01:02:22;;;;;;;14.10;7.80;;;;;;;4.45;49.82;101207.59;672073;29;1156;-90
2023/12/03 01:02:43;;;;;;;15.40;7.97;;;;;;;4.41;49.82;101195.31;669922;29;1206;-90
2023/12/03 01:03:04;;;;;;;13.93;7.55;;;;;;;4.44;49.72;101205.81;669482;29;1353;-90
2023/12/03 01:03:25;;;;;;;15.70;7.60;;;;;;;4.45;49.96;101213.66;667115;29;1181;-89
2023/12/03 01:03:48;;;;;;;13.27;6.70;;;;;;;4.49;49.98;101214.75;666091;29;1203;-89
2023/12/03 01:04:09;;;;;;;15.60;7.22;;;;;;;4.42;49.85;101213.47;666952;29;1352;-90
2023/12/03 01:04:30;;;;;;;12.93;6.70;;;;;;;4.43;50.05;101206.63;669618;29;1302;-89
2023/12/03 01:04:50;;;;;;;14.57;6.72;;;;;;;4.37;49.82;101205.44;667167;29;1204;-88
2023/12/03 01:05:11;;;;;;;14.20;6.53;;;;;;;4.44;49.79;101216.16;669660;29;1204;-90
2023/12/03 01:05:32;;;;;;;14.57;7.00;;;;;;;4.43;50.06;101216.97;669700;29;1238;-90
2023/12/03 01:05:57;;;;;;;10.48;6.60;;;;;;;4.37;49.91;101205.44;671057;29;1315;-90
2023/12/03 01:06:17;;;;;;;11.15;6.72;;;;;;;4.37;49.58;101207.16;675332;29;1312;-89
2023/12/03 01:06:38;;;;;;;11.00;6.77;;;;;;;4.45;49.87;101205.00;672750;29;1202;-90
2023/12/03 01:06:59;;;;;;;11.82;7.22;;;;;;;4.49;49.69;101217.34;669393;29;1489;-89
2023/12/03 01:07:20;;;;;;;10.63;6.80;;;;;;;4.42;49.94;101210.00;667305;29;1219;-90
2023/12/03 01:07:40;;;;;;;12.00;7.07;;;;;;;4.47;49.78;101211.19;670274;29;1217;-89
2023/12/03 01:08:01;;;;;;;13.90;6.93;;;;;;;4.43;49.68;101210.13;666968;29;1215;-90
2023/12/03 01:08:22;;;;;;;12.35;7.40;;;;;;;4.49;49.68;101219.91;671121;29;1188;-89
2023/12/03 01:08:43;;;;;;;15.85;7.35;;;;;;;4.44;50.00;101221.31;668995;29;1400;-89
2023/12/03 01:09:04;;;;;;;13.88;7.35;;;;;;;4.40;49.86;101209.91;670138;29;1322;-90
2023/12/03 01:09:26;;;;;;;16.50;7.85;;;;;;;4.45;49.81;101216.25;667657;29;1203;-90
2023/12/03 01:09:47;;;;;;;14.57;8.70;;;;;;;4.46;49.73;101211.97;672793;29;1239;-89
2023/12/03 01:10:08;;;;;;;14.77;8.13;;;;;;;4.44;49.71;101216.16;675365;29;1151;-90
2023/12/03 01:10:30;;;;;;;13.95;8.05;;;;;;;4.43;50.01;101214.38;670054;29;1286;-89
2023/12/03 01:10:51;;;;;;;15.65;8.05;;;;;;;4.44;49.67;101221.31;670199;29;1393;-89
2023/12/03 01:11:11;;;;;;;17.52;8.77;;;;;;;4.44;49.53;101217.06;667428;29;1290;-90
2023/12/03 01:11:32;;;;;;;16.13;8.20;;;;;;;4.48;49.85;101212.97;669974;29;1301;-89
2023/12/03 01:11:56;;;;;;;14.80;8.07;;;;;;;4.51;49.68;101218.31;673589;29;1128;-90
2023/12/03 01:12:17;;;;;;;15.60;7.97;;;;;;;4.49;49.73;101217.34;666824;29;1319;-90
2023/12/03 01:12:37;;;;;;;15.05;7.78;;;;;;;4.54;49.55;101221.06;666981;29;1933;-89
2023/12/03 01:12:58;;;;;;;13.95;7.05;;;;;;;4.51;49.31;101218.31;670496;29;1162;-89
2023/12/03 01:13:18;;;;;;;12.30;6.67;;;;;;;4.47;49.36;101219.81;672261;29;1150;-89
2023/12/03 01:13:39;;;;;;;12.52;6.75;;;;;;;4.48;49.60;101219.00;672588;29;1395;-90
2023/12/03 01:14:00;;;;;;;14.82;7.10;;;;;;;4.45;49.71;101217.94;675677;29;1377;-89
2023/12/03 01:14:20;;;;;;;16.83;7.30;;;;;;;4.42;49.39;101223.81;676175;29;2072;-90
2023/12/03 01:14:42;;;;;;;14.80;7.07;;;;;;;4.46;49.72;101224.88;670518;29;1290;-90
2023/12/03 01:15:03;;;;;;;11.55;6.47;;;;;;;4.40;49.88;101219.38;674373;29;2336;-90
2023/12/03 01:15:35;;;;;;;9.70;6.32;;;;;;;4.47;49.70;101234.44;673737;29;2150;-89
2023/12/03 01:15:56;;;;;;;10.35;6.80;;;;;;;4.40;49.65;101230.59;670916;29;2364;-89
2023/12/03 01:16:17;;;;;;;10.52;6.80;;;;;;;4.37;49.56;101220.94;674961;29;978;-90
2023/12/03 01:16:38;;;;;;;11.30;6.80;;;;;;;4.34;50.00;101231.09;672270;29;1220;-89
2023/12/03 01:16:58;;;;;;;11.20;6.80;;;;;;;4.43;49.91;101219.53;671524;29;1472;-89
2023/12/03 01:17:19;;;;;;;9.57;6.80;;;;;;;4.38;50.22;101227.91;669601;29;1140;-89
2023/12/03 01:17:40;;;;;;;10.10;6.90;;;;;;;4.40;49.70;101224.53;669984;29;1335;-90
2023/12/03 01:18:01;;;;;;;10.35;6.55;;;;;;;4.43;50.35;101232.47;673074;29;1711;-90
2023/12/03 01:18:22;;;;;;;12.55;7.15;;;;;;;4.34;50.00;101231.09;669949;29;1513;-90
2023/12/03 01:18:43;;;;;;;12.60;7.03;;;;;;;4.31;50.02;101227.44;669289;29;1663;-88
2023/12/03 01:19:04;;;;;;;13.57;7.45;;;;;;;4.23;50.20;101216.66;669741;29;1195;-89
2023/12/03 01:19:24;;;;;;;13.40;6.97;;;;;;;4.28;50.40;101215.22;677038;29;1422;-89
2023/12/03 01:19:45;;;;;;;17.02;7.40;;;;;;;4.33;50.25;101231.00;674135;29;1615;-89
2023/12/03 01:20:07;;;;;;;14.50;6.73;;;;;;;4.33;50.29;101221.56;667869;29;1196;-89
2023/12/03 01:20:28;;;;;;;16.55;6.68;;;;;;;4.39;50.11;101228.81;670407;29;1083;-89
2023/12/03 01:20:58;;;;;;;17.00;6.90;;;;;;;4.43;49.83;101232.47;675420;29;1587;-89
2023/12/03 01:21:18;;;;;;;16.40;7.07;;;;;;;4.39;50.07;101221.06;675410;29;1247;-90
2023/12/03 01:21:39;;;;;;;13.10;6.75;;;;;;;4.42;49.71;101231.56;670187;29;1231;-89
2023/12/03 01:22:00;;;;;;;10.73;6.20;;;;;;;4.37;50.16;101233.00;673757;29;1491;-88
2023/12/03 01:22:21;;;;;;;9.50;5.80;;;;;;;4.40;50.03;101240.03;675473;29;1381;-90
2023/12/03 01:22:42;;;;;;;7.95;5.47;;;;;;;4.36;50.56;101234.66;675423;29;772;-89
2023/12/03 01:23:02;;;;;;;9.57;6.10;;;;;;;4.31;50.50;101230.94;674843;29;1941;-90
2023/12/03 01:23:23;;;;;;;9.40;5.70;;;;;;;4.37;50.41;101239.03;670148;29;1231;-90
2023/12/03 01:23:44;;;;;;;9.90;6.25;;;;;;;4.41;49.89;101228.91;672647;29;1496;-90
2023/12/03 01:24:05;;;;;;;10.10;6.35;;;;;;;4.43;50.08;101232.47;672904;29;1039;-89
2023/12/03 01:24:26;;;;;;;11.70;6.88;;;;;;;4.40;49.98;101246.09;672441;29;1244;-90
2023/12/03 01:24:47;;;;;;;12.32;6.57;;;;;;;4.43;50.08;101242.81;669083;29;1887;-90
2023/12/03 01:25:08;;;;;;;11.23;6.47;;;;;;;4.40;50.27;101240.03;671765;29;1359;-89
2023/12/03 01:25:28;;;;;;;13.17;6.87;;;;;;;4.33;50.18;101234.50;672567;29;1259;-88
2023/12/03 01:25:49;;;;;;;12.40;6.63;;;;;;;4.35;50.29;101245.81;671773;29;1139;-89
2023/12/03 01:26:10;;;;;;;12.60;6.63;;;;;;;4.37;50.01;101253.66;670116;29;1328;-89
2023/12/03 01:26:30;;;;;;;12.05;7.07;;;;;;;4.40;50.12;101251.25;669346;29;1197;-89
2023/12/03 01:26:51;;;;;;;12.47;7.53;;;;;;;4.41;50.20;101241.81;671044;29;1799;-90
2023/12/03 01:27:12;;;;;;;13.65;8.00;;;;;;;4.43;50.24;101240.22;672230;29;1292;-89
2023/12/03 01:27:32;;;;;;;10.02;6.60;;;;;;;4.44;50.04;101242.91;672368;29;1749;-90
2023/12/03 01:27:53;;;;;;;10.45;6.70;;;;;;;4.46;49.99;101245.56;673961;29;1623;-89
2023/12/03 01:28:15;;;;;;;9.73;6.50;;;;;;;4.40;50.59;101250.38;675273;29;1195;-89
2023/12/03 01:28:36;;;;;;;10.88;7.30;;;;;;;4.36;50.03;101237.25;677754;29;1390;-89
2023/12/03 01:28:57;;;;;;;10.07;7.18;;;;;;;4.41;50.39;101239.25;675864;29;1339;-89
2023/12/03 01:29:18;;;;;;;10.10;6.68;;;;;;;4.40;50.20;101245.22;672602;29;1219;-89
2023/12/03 01:29:39;;;;;;;10.75;6.68;;;;;;;4.36;50.23;101239.84;670160;29;1453;-90
2023/12/03 01:30:00;;;;;;;12.50;7.03;;;;;;;4.38;50.40;101247.69;674520;29;1636;-90
2023/12/03 01:30:21;;;;;;;11.93;6.70;;;;;;;4.33;50.46;101250.00;675009;29;1252;-89
2023/12/03 01:30:41;;;;;;;12.18;6.80;;;;;;;4.37;50.22;101241.63;670143;29;1148;-90
2023/12/03 01:31:02;;;;;;;11.27;6.53;;;;;;;4.36;50.36;101231.22;672150;29;1478;-89
2023/12/03 01:31:22;;;;;;;11.68;6.75;;;;;;;4.40;50.28;101245.22;670627;29;1582;-89
2023/12/03 01:31:43;;;;;;;11.63;6.45;;;;;;;4.36;50.46;101245.00;671700;29;1605;-90
2023/12/03 01:32:05;;;;;;;11.10;6.70;;;;;;;4.40;50.01;101246.09;670667;29;1360;-89
2023/12/03 01:32:25;;;;;;;13.60;7.03;;;;;;;4.42;50.46;101249.66;669965;29;972;-90
2023/12/03 01:32:46;;;;;;;12.30;6.72;;;;;;;4.46;50.23;101271.41;669684;29;1919;-88
2023/12/03 01:33:07;;;;;;;12.27;6.75;;;;;;;4.42;50.62;101259.13;666125;29;1489;-89
2023/12/03 01:33:28;;;;;;;10.10;6.70;;;;;;;4.39;50.48;101252.06;669807;29;1135;-89
2023/12/03 01:33:48;;;;;;;10.88;7.05;;;;;;;4.41;50.39;101257.34;670372;29;1585;-89
2023/12/03 01:34:09;;;;;;;10.57;7.00;;;;;;;4.46;50.28;101253.31;672568;29;1123;-90
2023/12/03 01:34:31;;;;;;;11.05;7.00;;;;;;;4.43;50.16;101250.56;669755;29;1248;-89
2023/12/03 01:34:51;;;;;;;9.20;6.20;;;;;;;4.38;50.44;101258.91;671088;29;1610;-90
2023/12/03 01:35:12;;;;;;;12.40;6.67;;;;;;;4.44;50.27;101254.91;669816;29;1278;-89
2023/12/03 01:35:33;;;;;;;12.50;7.07;;;;;;;4.38;50.42;101252.88;667291;29;1196;-90
2023/12/03 01:35:54;;;;;;;13.25;7.30;;;;;;;4.48;50.51;101264.66;666051;29;1665;-90
2023/12/03 01:36:15;;;;;;;12.25;7.35;;;;;;;4.45;49.95;101256.69;667337;29;1274;-89
2023/12/03 01:36:39;;;;;;;11.60;7.20;;;;;;;4.40;50.59;101255.56;672467;29;1141;-90
2023/12/03 01:37:00;;;;;;;11.00;7.30;;;;;;;4.47;50.33;101262.88;671577;29;1207;-89
2023/12/03 01:37:20;;;;;;;12.10;7.25;;;;;;;4.46;50.04;101263.66;667164;29;1456;-88
2023/12/03 01:37:41;;;;;;;16.75;7.22;;;;;;;4.46;50.40;101258.47;670013;29;1156;-90
2023/12/03 01:38:02;;;;;;;15.95;6.63;;;;;;;4.52;50.30;101261.44;670229;29;1578;-90
2023/12/03 01:38:22;;;;;;;14.25;6.55;;;;;;;4.53;50.20;101258.06;669712;29;1353;-90
2023/12/03 01:38:43;;;;;;;9.97;6.37;;;;;;;4.46;50.15;101254.22;672450;29;1543;-90
2023/12/03 01:39:05;;;;;;;9.50;7.00;;;;;;;4.41;49.81;101252.16;669877;29;1244;-89
2023/12/03 01:39:26;;;;;;;12.68;7.00;;;;;;;4.42;50.28;101256.53;672233;29;1386;-90
2023/12/03 01:39:46;;;;;;;13.18;7.57;;;;;;;4.48;50.16;101262.09;670134;29;1578;-90
2023/12/03 01:40:08;;;;;;;13.30;7.55;;;;;;;4.48;50.33;101260.38;669840;29;1223;-90
2023/12/03 01:40:28;;;;;;;9.85;7.78;;;;;;;4.41;50.21;101258.22;666701;29;1484;-90